createdAt,value
2023-05-10T00:00:10.147Z,24.40
2023-05-10T00:02:37.199Z,22.55
2023-05-10T00:05:04.111Z,19.40
2023-05-10T00:07:30.514Z,22.42
2023-05-10T00:09:56.931Z,19.90
2023-05-10T00:12:23.343Z,23.15
2023-05-10T00:14:49.740Z,19.05
2023-05-10T00:17:16.247Z,18.20
2023-05-10T00:19:42.787Z,17.88
2023-05-10T00:22:09.204Z,14.55
2023-05-10T00:24:35.647Z,15.38
2023-05-10T00:27:02.234Z,14.95
2023-05-10T00:29:29.342Z,12.10
2023-05-10T00:31:55.862Z,12.65
2023-05-10T00:34:22.291Z,14.35
2023-05-10T00:36:48.705Z,13.48
2023-05-10T00:39:15.091Z,9.50
2023-05-10T00:41:41.518Z,13.70
2023-05-10T00:44:07.987Z,12.57
2023-05-10T00:46:34.693Z,12.00
2023-05-10T00:49:01.435Z,14.80
2023-05-10T00:51:28.005Z,12.88
2023-05-10T00:53:54.909Z,10.05
2023-05-10T00:56:23.941Z,11.57
2023-05-10T00:58:50.709Z,8.90
2023-05-10T01:01:17.576Z,8.48
2023-05-10T01:03:44.637Z,11.38
2023-05-10T01:06:11.251Z,10.32
2023-05-10T01:08:37.978Z,9.40
2023-05-10T01:11:04.464Z,10.93
2023-05-10T01:13:43.221Z,9.02
2023-05-10T01:16:10.080Z,7.80
2023-05-10T01:18:40.319Z,9.65
2023-05-10T01:21:18.263Z,8.85
2023-05-10T01:24:09.730Z,9.85
2023-05-10T01:26:39.197Z,6.65
2023-05-10T01:29:37.834Z,10.30
2023-05-10T01:32:13.200Z,8.57
2023-05-10T01:35:07.276Z,7.60
2023-05-10T01:37:39.712Z,3.95
2023-05-10T01:40:24.208Z,4.82
2023-05-10T01:42:59.365Z,4.78
2023-05-10T01:45:34.863Z,6.28
2023-05-10T01:48:10.903Z,10.68
2023-05-10T01:50:40.987Z,4.78
2023-05-10T01:53:10.524Z,4.85
2023-05-10T01:55:43.925Z,10.75
2023-05-10T01:58:16.230Z,7.60
2023-05-10T02:00:45.620Z,8.65
2023-05-10T02:03:14.557Z,7.05
2023-05-10T02:05:42.342Z,12.93
2023-05-10T02:08:10.220Z,10.40
2023-05-10T02:10:37.144Z,8.25
2023-05-10T02:13:04.418Z,8.13
2023-05-10T02:15:32.185Z,12.63
2023-05-10T02:18:00.930Z,10.55
2023-05-10T02:20:28.169Z,8.52
2023-05-10T02:22:56.837Z,9.82
2023-05-10T02:25:26.001Z,13.13
2023-05-10T02:27:56.151Z,10.02
2023-05-10T02:30:24.199Z,8.52
2023-05-10T02:32:52.547Z,14.35
2023-05-10T02:35:20.269Z,14.70
2023-05-10T02:37:48.708Z,9.90
2023-05-10T02:40:17.777Z,10.02
2023-05-10T02:42:46.431Z,16.40
2023-05-10T02:45:16.263Z,19.17
2023-05-10T02:47:43.235Z,18.90
2023-05-10T02:50:10.537Z,18.30
2023-05-10T02:52:52.851Z,16.50
2023-05-10T02:55:23.626Z,18.13
2023-05-10T02:57:56.316Z,13.43
2023-05-10T03:00:22.827Z,13.35
2023-05-10T03:02:49.385Z,19.77
2023-05-10T03:05:15.827Z,22.20
2023-05-10T03:07:42.308Z,24.00
2023-05-10T03:10:09.285Z,20.85
2023-05-10T03:13:06.933Z,24.13
2023-05-10T03:15:39.121Z,20.00
2023-05-10T03:18:19.290Z,26.15
2023-05-10T03:20:49.839Z,24.95
2023-05-10T03:23:27.670Z,31.65
2023-05-10T03:25:54.356Z,26.45
2023-05-10T03:28:22.242Z,28.02
2023-05-10T03:30:50.516Z,32.25
2023-05-10T03:33:16.923Z,30.63
2023-05-10T03:35:45.061Z,32.65
2023-05-10T03:38:11.487Z,33.03
2023-05-10T03:40:38.206Z,31.55
2023-05-10T03:43:05.022Z,21.38
2023-05-10T03:45:31.776Z,31.67
2023-05-10T03:47:59.075Z,23.02
2023-05-10T03:50:25.983Z,26.83
2023-05-10T03:52:54.108Z,24.35
2023-05-10T03:55:21.413Z,28.05
2023-05-10T03:57:50.415Z,33.28
2023-05-10T04:00:17.767Z,30.65
2023-05-10T04:02:46.057Z,31.73
2023-05-10T04:05:13.461Z,27.40
2023-05-10T04:07:39.947Z,27.45
2023-05-10T04:10:06.770Z,25.40
2023-05-10T04:12:33.208Z,24.00
2023-05-10T04:14:59.620Z,25.38
2023-05-10T04:17:26.167Z,19.45
2023-05-10T04:19:55.541Z,24.73
2023-05-10T04:22:21.985Z,21.60
2023-05-10T04:24:48.382Z,22.70
2023-05-10T04:27:15.158Z,22.20
2023-05-10T04:29:42.516Z,21.50
2023-05-10T04:32:09.123Z,20.85
2023-05-10T04:34:35.528Z,22.23
2023-05-10T04:37:02.039Z,12.88
2023-05-10T04:39:28.437Z,15.55
2023-05-10T04:41:57.741Z,20.27
2023-05-10T04:44:24.224Z,19.77
2023-05-10T04:46:50.672Z,20.60
2023-05-10T04:49:17.696Z,20.20
2023-05-10T04:51:44.129Z,18.90
2023-05-10T04:54:11.267Z,23.45
2023-05-10T04:56:37.744Z,22.02
2023-05-10T04:59:04.144Z,20.92
2023-05-10T05:01:30.693Z,24.10
2023-05-10T05:03:57.407Z,20.00
2023-05-10T05:06:25.714Z,19.02
2023-05-10T05:08:52.396Z,24.88
2023-05-10T05:11:18.940Z,18.83
2023-05-10T05:13:45.524Z,19.73
2023-05-10T05:16:12.476Z,29.65
2023-05-10T05:18:39.422Z,23.15
2023-05-10T05:21:19.039Z,22.77
2023-05-10T05:23:45.780Z,25.52
2023-05-10T05:26:12.524Z,23.20
2023-05-10T05:28:39.389Z,26.83
2023-05-10T05:31:06.719Z,30.75
2023-05-10T05:33:33.237Z,29.55
2023-05-10T05:36:02.446Z,25.08
2023-05-10T05:38:29.033Z,27.50
2023-05-10T05:40:55.535Z,26.75
2023-05-10T05:43:21.962Z,29.83
2023-05-10T05:45:48.509Z,29.63
2023-05-10T05:48:14.955Z,33.92
2023-05-10T05:50:41.394Z,29.13
2023-05-10T05:53:07.775Z,29.92
2023-05-10T05:55:34.770Z,28.25
2023-05-10T05:58:01.155Z,31.80
2023-05-10T06:00:27.627Z,28.45
2023-05-10T06:02:54.104Z,27.23
2023-05-10T06:05:21.226Z,35.35
2023-05-10T06:07:47.653Z,29.42
2023-05-10T06:10:14.141Z,26.27
2023-05-10T06:12:40.662Z,30.27
2023-05-10T06:15:07.730Z,33.38
2023-05-10T06:17:34.213Z,29.35
2023-05-10T06:20:00.657Z,23.73
2023-05-10T06:22:27.140Z,26.33
2023-05-10T06:24:53.532Z,29.90
2023-05-10T06:27:19.935Z,23.23
2023-05-10T06:29:46.356Z,25.20
2023-05-10T06:32:12.862Z,16.42
2023-05-10T06:34:39.258Z,21.50
2023-05-10T06:37:05.710Z,29.92
2023-05-10T06:39:32.117Z,26.63
2023-05-10T06:41:58.519Z,24.00
2023-05-10T06:44:24.956Z,33.22
2023-05-10T06:46:52.118Z,24.70
2023-05-10T06:49:18.772Z,22.13
2023-05-10T06:51:46.047Z,32.00
2023-05-10T06:54:12.449Z,26.35
2023-05-10T06:56:38.864Z,30.58
2023-05-10T06:59:05.357Z,26.77
2023-05-10T07:01:31.840Z,29.00
2023-05-10T07:03:58.331Z,24.15
2023-05-10T07:06:33.429Z,19.70
2023-05-10T07:09:01.373Z,30.80
2023-05-10T07:11:27.960Z,29.85
2023-05-10T07:13:54.364Z,34.08
2023-05-10T07:16:20.878Z,34.50
2023-05-10T07:18:47.416Z,28.98
2023-05-10T07:21:13.974Z,27.83
2023-05-10T07:23:40.997Z,33.13
2023-05-10T07:26:08.525Z,34.50
2023-05-10T07:28:35.006Z,23.85
2023-05-10T07:31:01.444Z,34.88
2023-05-10T07:33:27.917Z,27.23
2023-05-10T07:35:54.393Z,29.10
2023-05-10T07:38:20.812Z,37.80
2023-05-10T07:40:47.219Z,34.60
2023-05-10T07:43:13.649Z,31.73
2023-05-10T07:45:40.112Z,37.50
2023-05-10T07:48:09.610Z,35.80
2023-05-10T07:50:36.161Z,35.17
2023-05-10T07:53:02.567Z,43.92
2023-05-10T07:55:28.951Z,45.00
2023-05-10T07:57:55.441Z,44.20
2023-05-10T08:00:21.902Z,45.40
2023-05-10T08:02:48.854Z,47.85
2023-05-10T08:05:16.236Z,45.85
2023-05-10T08:07:43.427Z,34.58
2023-05-10T08:10:11.914Z,49.58
2023-05-10T08:12:39.287Z,39.78
2023-05-10T08:15:06.433Z,44.38
2023-05-10T08:17:33.467Z,41.85
2023-05-10T08:20:00.010Z,38.67
2023-05-10T08:22:27.027Z,50.22
2023-05-10T08:24:53.463Z,42.88
2023-05-10T08:27:19.882Z,40.95
2023-05-10T08:29:49.920Z,34.78
2023-05-10T08:32:16.975Z,34.90
2023-05-10T08:34:43.434Z,35.22
2023-05-10T08:37:11.451Z,35.33
2023-05-10T08:39:38.307Z,35.20
2023-05-10T08:42:05.929Z,34.05
2023-05-10T08:44:35.041Z,42.60
2023-05-10T08:47:05.731Z,41.42
2023-05-10T08:49:33.703Z,44.28
2023-05-10T08:52:04.375Z,34.97
2023-05-10T08:54:32.951Z,52.53
2023-05-10T08:56:59.523Z,46.03
2023-05-10T08:59:26.210Z,52.08
2023-05-10T09:01:55.030Z,44.05
2023-05-10T09:04:22.223Z,43.88
2023-05-10T09:06:48.939Z,37.40
2023-05-10T09:09:17.065Z,32.72
2023-05-10T09:11:44.401Z,33.33
2023-05-10T09:14:11.216Z,31.80
2023-05-10T09:16:37.777Z,25.58
2023-05-10T09:19:04.469Z,27.90
2023-05-10T09:21:32.101Z,27.55
2023-05-10T09:24:04.190Z,32.60
2023-05-10T09:26:30.671Z,29.00
2023-05-10T09:28:59.305Z,27.65
2023-05-10T09:31:26.778Z,22.73
2023-05-10T09:33:54.302Z,26.70
2023-05-10T09:36:20.768Z,30.55
2023-05-10T09:38:52.813Z,24.92
2023-05-10T09:41:21.649Z,23.42
2023-05-10T09:43:48.643Z,25.20
2023-05-10T09:46:16.874Z,28.67
2023-05-10T09:48:46.475Z,27.23
2023-05-10T09:51:25.794Z,25.05
2023-05-10T09:54:16.602Z,25.80
2023-05-10T09:56:45.846Z,21.55
2023-05-10T09:59:13.348Z,27.00
2023-05-10T10:01:40.216Z,27.08
2023-05-10T10:04:08.672Z,23.52
2023-05-10T10:06:39.445Z,27.45
2023-05-10T10:09:07.372Z,23.30
2023-05-10T10:11:36.393Z,21.45
2023-05-10T10:14:03.026Z,21.10
2023-05-10T10:16:33.254Z,19.90
2023-05-10T10:18:59.896Z,16.60
2023-05-10T10:21:26.678Z,19.20
2023-05-10T10:23:54.071Z,20.83
2023-05-10T10:26:22.358Z,22.63
2023-05-10T10:29:24.164Z,19.83
2023-05-10T10:32:02.142Z,17.30
2023-05-10T10:34:30.132Z,20.30
2023-05-10T10:36:58.027Z,19.77
2023-05-10T10:39:28.400Z,18.77
2023-05-10T10:44:25.571Z,19.40
2023-05-10T10:47:19.539Z,23.20
2023-05-10T10:49:53.236Z,18.52
2023-05-10T10:52:22.937Z,18.73
2023-05-10T10:55:11.733Z,24.92
2023-05-10T10:57:41.255Z,21.00
2023-05-10T11:00:25.202Z,18.02
2023-05-10T11:02:52.532Z,18.50
2023-05-10T11:05:36.433Z,16.83
2023-05-10T11:08:10.589Z,18.45
2023-05-10T11:10:37.390Z,19.38
2023-05-10T11:13:08.713Z,14.38
2023-05-10T11:15:40.907Z,17.83
2023-05-10T11:18:30.236Z,14.98
2023-05-10T11:21:04.200Z,13.85
2023-05-10T11:23:52.111Z,13.75
2023-05-10T11:26:19.436Z,14.25
2023-05-10T11:28:50.039Z,14.13
2023-05-10T11:31:17.980Z,13.27
2023-05-10T11:33:52.274Z,14.93
2023-05-10T11:36:24.336Z,14.05
2023-05-10T11:38:50.824Z,11.80
2023-05-10T11:41:19.322Z,13.70
2023-05-10T11:43:49.736Z,14.07
2023-05-10T11:48:43.933Z,11.43
2023-05-10T11:51:11.640Z,13.65
2023-05-10T11:53:39.011Z,14.20
2023-05-10T11:56:09.252Z,13.27
2023-05-10T11:58:37.342Z,14.80
2023-05-10T12:01:05.338Z,11.48
2023-05-10T12:03:32.556Z,10.32
2023-05-10T12:06:00.200Z,8.88
2023-05-10T12:08:29.114Z,10.45
2023-05-10T12:11:08.413Z,9.77
2023-05-10T12:13:42.109Z,7.45
2023-05-10T12:16:20.820Z,8.23
2023-05-10T12:18:54.657Z,9.00
2023-05-10T12:21:22.080Z,9.00
2023-05-10T12:23:51.507Z,9.25
2023-05-10T12:26:18.269Z,7.78
2023-05-10T12:28:45.314Z,8.45
2023-05-10T12:31:11.816Z,6.95
2023-05-10T12:33:44.024Z,8.13
2023-05-10T12:36:12.662Z,8.00
2023-05-10T12:38:43.181Z,6.95
2023-05-10T12:41:14.685Z,4.95
2023-05-10T12:43:41.683Z,5.43
2023-05-10T12:46:15.736Z,6.60
2023-05-10T12:48:43.716Z,6.43
2023-05-10T12:51:12.704Z,6.53
2023-05-10T12:53:41.680Z,6.90
2023-05-10T12:56:10.848Z,4.93
2023-05-10T12:58:37.304Z,7.50
2023-05-10T13:01:04.169Z,6.13
2023-05-10T13:03:34.172Z,7.57
2023-05-10T13:06:00.810Z,6.47
2023-05-10T13:08:27.351Z,7.32
2023-05-10T13:10:54.189Z,7.25
2023-05-10T13:13:20.694Z,7.05
2023-05-10T13:15:47.135Z,8.02
2023-05-10T13:18:13.955Z,6.18
2023-05-10T13:20:40.526Z,7.43
2023-05-10T13:23:07.011Z,7.95
2023-05-10T13:25:35.221Z,10.77
2023-05-10T13:28:02.096Z,8.50
2023-05-10T13:30:29.705Z,9.40
2023-05-10T13:32:56.237Z,10.00
2023-05-10T13:35:22.889Z,8.05
2023-05-10T13:37:49.337Z,9.70
2023-05-10T13:40:16.763Z,7.05
2023-05-10T13:42:43.512Z,6.13
2023-05-10T13:45:13.198Z,7.03
2023-05-10T13:47:40.038Z,7.03
2023-05-10T13:50:07.207Z,6.93
2023-05-10T13:52:33.693Z,7.68
2023-05-10T13:55:00.163Z,5.80
2023-05-10T13:57:26.728Z,6.43
2023-05-10T13:59:53.827Z,5.03
2023-05-10T14:02:21.165Z,5.20
2023-05-10T14:04:47.826Z,4.45
2023-05-10T14:07:14.226Z,6.40
2023-05-10T14:09:40.777Z,7.57
2023-05-10T14:12:07.240Z,4.45
2023-05-10T14:14:33.683Z,6.30
2023-05-10T14:17:00.340Z,5.05
2023-05-10T14:19:27.972Z,4.90
2023-05-10T14:21:54.420Z,4.35
2023-05-10T14:24:20.799Z,7.57
2023-05-10T14:26:47.265Z,7.22
2023-05-10T14:29:13.921Z,7.80
2023-05-10T14:31:41.624Z,7.63
2023-05-10T14:34:08.112Z,5.88
2023-05-10T14:36:34.594Z,7.80
2023-05-10T14:39:01.090Z,8.93
2023-05-10T14:41:27.561Z,6.53
2023-05-10T14:43:54.270Z,6.70
2023-05-10T14:46:20.843Z,8.73
2023-05-10T14:48:47.511Z,7.47
2023-05-10T14:51:14.149Z,7.45
2023-05-10T14:53:40.585Z,8.40
2023-05-10T14:56:08.048Z,8.95
2023-05-10T14:58:34.602Z,8.05
2023-05-10T15:01:01.690Z,7.93
2023-05-10T15:03:28.732Z,8.05
2023-05-10T15:05:57.032Z,10.48
2023-05-10T15:08:24.815Z,7.57
2023-05-10T15:10:52.232Z,7.68
2023-05-10T15:13:18.615Z,7.25
2023-05-10T15:15:45.075Z,5.18
2023-05-10T15:18:11.586Z,8.32
2023-05-10T15:20:38.094Z,5.53
2023-05-10T15:23:04.559Z,13.07
2023-05-10T15:25:31.040Z,7.90
2023-05-10T15:27:57.443Z,5.13
2023-05-10T15:30:24.037Z,8.02
2023-05-10T15:32:50.559Z,4.80
2023-05-10T15:35:17.930Z,6.57
2023-05-10T15:37:45.673Z,7.75
2023-05-10T15:40:12.400Z,6.93
2023-05-10T15:42:38.892Z,7.07
2023-05-10T15:45:05.885Z,5.00
2023-05-10T15:47:32.697Z,5.90
2023-05-10T15:49:59.229Z,12.52
2023-05-10T15:52:25.693Z,5.22
2023-05-10T15:54:52.155Z,5.82
2023-05-10T15:57:18.597Z,6.57
2023-05-10T15:59:45.835Z,4.57
2023-05-10T16:02:12.422Z,7.28
2023-05-10T16:04:39.136Z,6.78
2023-05-10T16:07:05.927Z,7.38
2023-05-10T16:09:32.439Z,6.50
2023-05-10T16:11:58.889Z,5.85
2023-05-10T16:14:25.327Z,5.57
2023-05-10T16:16:52.269Z,6.88
2023-05-10T16:19:18.976Z,7.63
2023-05-10T16:21:45.613Z,5.15
2023-05-10T16:24:12.271Z,8.65
2023-05-10T16:26:41.115Z,5.53
2023-05-10T16:29:08.643Z,7.57
2023-05-10T16:31:35.309Z,4.88
2023-05-10T16:34:02.050Z,9.57
2023-05-10T16:36:29.577Z,10.85
2023-05-10T16:38:56.565Z,6.38
2023-05-10T16:41:23.024Z,7.53
2023-05-10T16:43:50.066Z,7.50
2023-05-10T16:46:16.682Z,6.22
2023-05-10T16:48:43.322Z,6.07
2023-05-10T16:51:09.838Z,9.50
2023-05-10T16:53:36.356Z,7.43
2023-05-10T16:56:03.142Z,7.82
2023-05-10T16:58:29.614Z,12.23
2023-05-10T17:00:56.129Z,7.28
2023-05-10T17:03:22.826Z,8.73
2023-05-10T17:05:49.337Z,7.88
2023-05-10T17:08:16.450Z,8.35
2023-05-10T17:10:42.968Z,6.55
2023-05-10T17:13:10.570Z,7.28
2023-05-10T17:15:38.248Z,8.77
2023-05-10T17:18:06.898Z,6.45
2023-05-10T17:20:34.176Z,5.95
2023-05-10T17:23:02.597Z,9.82
2023-05-10T17:25:29.613Z,6.30
2023-05-10T17:27:56.064Z,9.40
2023-05-10T17:30:26.304Z,7.03
2023-05-10T17:32:54.193Z,7.82
2023-05-10T17:35:21.322Z,7.95
2023-05-10T17:37:47.867Z,7.47
2023-05-10T17:40:14.347Z,7.88
2023-05-10T17:42:40.976Z,7.30
2023-05-10T17:45:08.010Z,6.53
2023-05-10T17:47:34.528Z,6.72
2023-05-10T17:50:01.051Z,8.00
2023-05-10T17:52:30.843Z,7.05
2023-05-10T17:54:59.631Z,6.40
2023-05-10T17:57:26.252Z,7.40
2023-05-10T17:59:52.719Z,5.97
2023-05-10T18:02:19.187Z,4.95
2023-05-10T18:04:45.759Z,6.30
2023-05-10T18:07:12.388Z,5.70
2023-05-10T18:09:38.817Z,7.22
2023-05-10T18:12:05.997Z,7.40
2023-05-10T18:14:40.693Z,5.35
2023-05-10T18:17:08.165Z,6.55
2023-05-10T18:19:34.736Z,4.88
2023-05-10T18:22:01.193Z,6.05
2023-05-10T18:24:38.252Z,4.90
2023-05-10T18:27:05.926Z,5.28
2023-05-10T18:29:32.688Z,9.13
2023-05-10T18:31:59.097Z,5.05
2023-05-10T18:34:25.708Z,4.95
2023-05-10T18:36:52.643Z,6.65
2023-05-10T18:39:19.244Z,4.90
2023-05-10T18:41:45.681Z,6.63
2023-05-10T18:44:12.277Z,7.32
2023-05-10T18:46:39.008Z,4.18
2023-05-10T18:49:06.537Z,5.60
2023-05-10T18:51:33.069Z,5.43
2023-05-10T18:53:59.534Z,6.15
2023-05-10T18:56:26.073Z,4.95
2023-05-10T18:58:52.721Z,6.45
2023-05-10T19:01:19.244Z,5.28
2023-05-10T19:03:45.782Z,8.32
2023-05-10T19:06:12.215Z,5.80
2023-05-10T19:08:38.733Z,5.65
2023-05-10T19:11:05.270Z,5.63
2023-05-10T19:13:31.878Z,5.22
2023-05-10T19:16:13.010Z,4.47
2023-05-10T19:18:39.946Z,4.63
2023-05-10T19:21:09.865Z,4.45
2023-05-10T19:23:41.668Z,4.32
2023-05-10T19:26:09.572Z,6.15
2023-05-10T19:28:37.001Z,4.88
2023-05-10T19:31:03.524Z,6.38
2023-05-10T19:33:29.990Z,7.22
2023-05-10T19:35:56.411Z,5.65
2023-05-10T19:38:24.052Z,5.85
2023-05-10T19:40:57.447Z,4.55
2023-05-10T19:43:28.447Z,4.88
2023-05-10T19:45:58.061Z,6.22
2023-05-10T19:48:24.942Z,9.27
2023-05-10T19:50:52.036Z,8.98
2023-05-10T19:53:18.594Z,6.13
2023-05-10T19:55:45.261Z,5.40
2023-05-10T19:58:11.846Z,6.00
2023-05-10T20:00:38.315Z,6.93
2023-05-10T20:03:09.283Z,5.93
2023-05-10T20:05:35.913Z,5.85
2023-05-10T20:08:02.558Z,5.90
2023-05-10T20:10:29.146Z,5.95
2023-05-10T20:12:55.670Z,7.07
2023-05-10T20:15:23.428Z,11.15
2023-05-10T20:17:52.040Z,7.32
2023-05-10T20:20:20.167Z,7.55
2023-05-10T20:22:47.916Z,7.60
2023-05-10T20:25:15.882Z,8.85
2023-05-10T20:27:42.782Z,7.13
2023-05-10T20:30:10.424Z,7.90
2023-05-10T20:32:37.937Z,11.75
2023-05-10T20:35:05.602Z,15.25
2023-05-10T20:37:32.052Z,11.35
2023-05-10T20:39:58.725Z,10.63
2023-05-10T20:42:25.193Z,14.93
2023-05-10T20:44:51.753Z,11.32
2023-05-10T20:47:18.245Z,9.90
2023-05-10T20:49:44.693Z,9.57
2023-05-10T20:52:11.418Z,8.57
2023-05-10T20:54:38.000Z,13.77
2023-05-10T20:57:04.386Z,10.07
2023-05-10T20:59:30.878Z,9.15
2023-05-10T21:01:57.911Z,14.10
2023-05-10T21:04:25.665Z,17.58
2023-05-10T21:06:53.010Z,11.50
2023-05-10T21:09:19.645Z,7.47
2023-05-10T21:11:46.171Z,8.52
2023-05-10T21:14:12.646Z,7.43
2023-05-10T21:16:39.116Z,6.45
2023-05-10T21:19:07.147Z,6.25
2023-05-10T21:21:33.956Z,7.63
2023-05-10T21:24:00.475Z,6.05
2023-05-10T21:26:26.894Z,6.57
2023-05-10T21:28:53.422Z,6.53
2023-05-10T21:31:20.192Z,5.78
2023-05-10T21:33:46.784Z,5.97
2023-05-10T21:36:13.795Z,6.00
2023-05-10T21:38:40.923Z,8.52
2023-05-10T21:41:08.043Z,6.97
2023-05-10T21:43:34.629Z,7.65
2023-05-10T21:46:01.470Z,8.27
2023-05-10T21:48:28.063Z,16.55
2023-05-10T21:50:54.594Z,12.10
2023-05-10T21:53:21.071Z,10.07
2023-05-10T21:55:48.334Z,10.43
2023-05-10T21:58:14.753Z,12.15
2023-05-10T22:00:41.136Z,11.02
2023-05-10T22:03:07.774Z,16.40
2023-05-10T22:05:34.399Z,19.67
2023-05-10T22:08:01.012Z,17.27
2023-05-10T22:10:27.578Z,17.48
2023-05-10T22:12:54.016Z,18.70
2023-05-10T22:15:20.431Z,17.00
2023-05-10T22:17:46.990Z,17.60
2023-05-10T22:20:13.756Z,14.63
2023-05-10T22:22:40.283Z,16.92
2023-05-10T22:25:07.642Z,14.70
2023-05-10T22:27:34.545Z,16.15
2023-05-10T22:30:01.591Z,14.02
2023-05-10T22:32:28.370Z,11.75
2023-05-10T22:34:54.911Z,9.77
2023-05-10T22:37:21.367Z,7.88
2023-05-10T22:39:48.885Z,16.77
2023-05-10T22:42:16.200Z,16.52
2023-05-10T22:44:43.402Z,19.70
2023-05-10T22:47:10.065Z,17.30
2023-05-10T22:49:36.596Z,23.55
2023-05-10T22:52:03.042Z,20.00
2023-05-10T22:54:29.555Z,19.77
2023-05-10T22:56:56.619Z,16.35
2023-05-10T22:59:23.708Z,13.55
2023-05-10T23:01:50.645Z,20.17
2023-05-10T23:04:17.209Z,18.42
2023-05-10T23:06:43.718Z,16.02
2023-05-10T23:09:10.105Z,22.75
2023-05-10T23:11:36.535Z,16.35
2023-05-10T23:14:03.143Z,23.98
2023-05-10T23:16:30.483Z,24.52
2023-05-10T23:18:57.089Z,20.90
2023-05-10T23:21:25.120Z,20.45
2023-05-10T23:23:51.642Z,22.73
2023-05-10T23:26:18.103Z,22.00
2023-05-10T23:28:44.484Z,19.30
2023-05-10T23:31:11.050Z,24.33
2023-05-10T23:33:37.479Z,24.05
2023-05-10T23:36:04.088Z,18.70
2023-05-10T23:38:30.654Z,13.40
2023-05-10T23:40:58.411Z,17.70
2023-05-10T23:43:25.449Z,20.08
2023-05-10T23:45:53.764Z,17.88
2023-05-10T23:48:20.247Z,14.65
2023-05-10T23:50:46.695Z,13.65
2023-05-10T23:53:13.281Z,14.73
2023-05-10T23:55:39.806Z,15.27
2023-05-10T23:58:06.418Z,22.27
